• Join FlightAware (Why Join?)
  • Login
  • US Flag 
09:56PM EST


 

Airport Tracker/Info


-or-


 

Live Flight TrackerFlight Track Log ✈ N36715 ✈ 16-May-2013 ✈ YBCG / OOL - GCCT

Flight Track Log - Related Links

Times and Time Zones

All times are in EDT time to prevent confusion due to time zone crossing. See the N36715 flight status page for this flight to view local times or setup timezone preferences in your user account.

Time Position Orientation Groundspeed Altitude Reporting Facility
EDT Latitude Longitude Course Direction KTS MPH feet Rate Location/Type
04:52AM -28.1703 153.5097 148° Southeast 132 152 500  Level Aus ATC (RADAR)
04:53AM -28.1922 153.5251 148° Southeast 155 178 1,700 780 Climbing Aus ATC (RADAR)
04:53AM -28.1816 153.5562 69° East 168 193 1,500 -180 Descending Aus ATC (RADAR)
04:54AM -28.1517 153.5444 341° North 146 168 1,500  Level Aus ATC (RADAR)
04:54AM -28.1374 153.5343 328° Northwest 144 166 1,500 -360 Level Aus ATC (RADAR)
04:55AM -28.1217 153.5011 298° West 122 140 1,000 -480 Descending Aus ATC (RADAR)
04:56AM -28.1314 153.4907 223° Southwest 115 132 800 -660 Descending Aus ATC (RADAR)
04:56AM -28.1462 153.4936 170° South 112 129 400 -840 Descending Aus ATC (RADAR)
05:00AM -28.1656 153.5062 113° Southeast 1,000 120 Climbing Aus ATC (Calculated)
05:02AM -28.1665 153.5086 113° Southeast  Level FlightAware Approximate
05:03AM -28.1672 153.5105 113° Southeast  Level FlightAware Approximate
05:04AM -28.1679 153.5123 113° Southeast  Level FlightAware Approximate
05:05AM -28.1686 153.5142 113° Southeast  Level FlightAware Approximate
05:06AM -28.1693 153.5161 113° Southeast  Level FlightAware Approximate
05:07AM -28.1700 153.5179 113° Southeast  Level FlightAware Approximate
05:08AM -28.1707 153.5198 113° Southeast  Level FlightAware Approximate
05:09AM -28.1714 153.5216 113° Southeast  Level FlightAware Approximate
05:10AM -28.1721 153.5235 113° Southeast  Level FlightAware Approximate
05:11AM -28.1728 153.5254 113° Southeast  Level FlightAware Approximate
05:12AM -28.1735 153.5272 113° Southeast  Level FlightAware Approximate
05:13AM -28.1742 153.5291 113° Southeast  Level FlightAware Approximate
05:14AM -28.1749 153.5309 113° Southeast  Level FlightAware Approximate
05:15AM -28.1756 153.5328 113° Southeast  Level FlightAware Approximate
05:16AM -28.1763 153.5347 113° Southeast  Level FlightAware Approximate
05:17AM -28.1770 153.5365 113° Southeast  Level FlightAware Approximate
05:18AM -28.1777 153.5384 113° Southeast  Level FlightAware Approximate
05:19AM -28.1784 153.5402 113° Southeast  Level FlightAware Approximate
05:20AM -28.1791 153.5421 113° Southeast  Level FlightAware Approximate
05:21AM -28.1798 153.5440 113° Southeast  Level FlightAware Approximate
05:22AM -28.1805 153.5458 113° Southeast  Level FlightAware Approximate
05:23AM -28.1812 153.5477 112° Southeast  Level FlightAware Approximate
05:24AM -28.1814 153.5477 121° Southeast  Level FlightAware Approximate
05:25AM -28.1824 153.5495 121° Southeast  Level FlightAware Approximate
05:26AM -28.1833 153.5512 121° Southeast  Level FlightAware Approximate
05:27AM -28.1842 153.5529 121° Southeast  Level FlightAware Approximate
05:28AM -28.1851 153.5547 121° Southeast  Level FlightAware Approximate
05:29AM -28.1860 153.5564 121° Southeast  Level FlightAware Approximate
05:30AM -28.1869 153.5582 121° Southeast  Level FlightAware Approximate
05:31AM -28.1878 153.5599 121° Southeast  Level FlightAware Approximate
05:32AM -28.1887 153.5616 121° Southeast  Level FlightAware Approximate
05:33AM -28.1896 153.5634 121° Southeast  Level FlightAware Approximate
05:34AM -28.1905 153.5651 121° Southeast  Level FlightAware Approximate
05:35AM -28.1915 153.5668 121° Southeast  Level FlightAware Approximate
05:36AM -28.1924 153.5686 121° Southeast  Level FlightAware Approximate
05:37AM -28.1933 153.5703 121° Southeast  Level FlightAware Approximate
05:38AM -28.1942 153.5721 121° Southeast  Level FlightAware Approximate
05:39AM -28.1951 153.5738 121° Southeast  Level FlightAware Approximate
05:40AM -28.1960 153.5755 121° Southeast  Level FlightAware Approximate
05:41AM -28.1969 153.5773 121° Southeast  Level FlightAware Approximate
05:42AM -28.1984 153.5777 186° South  Level FlightAware Approximate
05:43AM -28.2002 153.5775 186° South  Level FlightAware Approximate
05:44AM -28.2020 153.5773 186° South  Level FlightAware Approximate
05:45AM -28.2037 153.5771 186° South  Level FlightAware Approximate
05:46AM -28.2055 153.5768 186° South  Level FlightAware Approximate
05:47AM -28.2073 153.5766 186° South  Level FlightAware Approximate
05:48AM -28.2090 153.5764 186° South  Level FlightAware Approximate
05:49AM -28.2108 153.5762 186° South  Level FlightAware Approximate
05:50AM -28.2126 153.5760 186° South  Level FlightAware Approximate
05:51AM -28.2144 153.5758 186° South  Level FlightAware Approximate
05:52AM -28.2161 153.5756 186° South  Level FlightAware Approximate
05:53AM -28.2179 153.5754 186° South  Level FlightAware Approximate
05:54AM -28.2197 153.5752 186° South  Level FlightAware Approximate
05:55AM -28.2214 153.5750 186° South  Level FlightAware Approximate
05:56AM -28.2232 153.5748 186° South  Level FlightAware Approximate
05:57AM -28.2250 153.5746 186° South  Level FlightAware Approximate
05:58AM -28.2267 153.5744 186° South  Level FlightAware Approximate
05:59AM -28.2285 153.5742 186° South  Level FlightAware Approximate
06:00AM -28.2303 153.5740 186° South  Level FlightAware Approximate
06:01AM -28.2321 153.5738 186° South  Level FlightAware Approximate
06:02AM -28.2338 153.5736 186° South  Level FlightAware Approximate
06:03AM -28.2356 153.5734 186° South  Level FlightAware Approximate
06:04AM -28.2374 153.5732 186° South  Level FlightAware Approximate
06:05AM -28.2391 153.5730 186° South  Level FlightAware Approximate
06:06AM -28.2409 153.5728 186° South  Level FlightAware Approximate
06:07AM -28.2427 153.5726 186° South  Level FlightAware Approximate
06:08AM -28.2444 153.5723 186° South  Level FlightAware Approximate
06:09AM -28.2462 153.5721 186° South  Level FlightAware Approximate
06:10AM -28.2480 153.5719 186° South  Level FlightAware Approximate
06:11AM -28.2498 153.5717 186° South  Level FlightAware Approximate
06:12AM -28.2500 153.5717 186° South  Level FlightAware Approximate
06:13AM -28.2500 153.5717 186° South  Level FlightAware Approximate
06:14AM -28.2500 153.5717 186° South  Level FlightAware Approximate
06:15AM -28.2500 153.5717 186° South  Level FlightAware Approximate
06:16AM -28.2500 153.5717 186° South  Level FlightAware Approximate
06:17AM -28.2500 153.5717 186° South  Level FlightAware Approximate
06:18AM -28.2500 153.5717 186° South  Level FlightAware Approximate
06:19AM -28.2500 153.5717 186° South  Level FlightAware Approximate
06:20AM -28.2500 153.5717 186° South  Level FlightAware Approximate
06:21AM -28.2500 153.5717 186° South  Level FlightAware Approximate